createdAt,value
2018-04-14T00:00:54.822Z,1007.25
2018-04-14T00:01:54.847Z,1007.24
2018-04-14T00:02:54.858Z,1007.24
2018-04-14T00:03:54.884Z,1007.20
2018-04-14T00:04:54.901Z,1007.23
2018-04-14T00:05:54.921Z,1007.25
2018-04-14T00:06:54.938Z,1007.21
2018-04-14T00:07:54.960Z,1007.15
2018-04-14T00:08:54.985Z,1007.15
2018-04-14T00:09:55.005Z,1007.15
2018-04-14T00:10:55.025Z,1007.12
2018-04-14T00:11:55.045Z,1007.13
2018-04-14T00:12:55.063Z,1007.16
2018-04-14T00:13:55.083Z,1007.13
2018-04-14T00:14:55.108Z,1007.19
2018-04-14T00:15:55.123Z,1007.25
2018-04-14T00:16:55.150Z,1007.25
2018-04-14T00:17:55.164Z,1007.24
2018-04-14T00:18:55.187Z,1007.25
2018-04-14T00:19:55.204Z,1007.26
2018-04-14T00:20:55.231Z,1007.31
2018-04-14T00:21:55.243Z,1007.32
2018-04-14T00:22:55.270Z,1007.28
2018-04-14T00:23:55.283Z,1007.31
2018-04-14T00:24:55.307Z,1007.31
2018-04-14T00:25:55.325Z,1007.28
2018-04-14T00:26:55.343Z,1007.29
2018-04-14T00:27:55.365Z,1007.31
2018-04-14T00:28:55.387Z,1007.26
2018-04-14T00:29:55.411Z,1007.30
2018-04-14T00:30:55.422Z,1007.27
2018-04-14T00:31:55.451Z,1007.28
2018-04-14T00:32:55.464Z,1007.29
2018-04-14T00:33:55.489Z,1007.22
2018-04-14T00:34:55.506Z,1007.26
2018-04-14T00:35:55.529Z,1007.29
2018-04-14T00:36:55.546Z,1007.30
2018-04-14T00:37:55.567Z,1007.27
2018-04-14T00:38:55.582Z,1007.26
2018-04-14T00:39:55.611Z,1007.22
2018-04-14T00:40:55.623Z,1007.24
2018-04-14T00:41:55.645Z,1007.26
2018-04-14T00:42:55.672Z,1007.31
2018-04-14T00:43:55.693Z,1007.25
2018-04-14T00:44:55.712Z,1007.22
2018-04-14T00:45:55.724Z,1007.25
2018-04-14T00:46:55.752Z,1007.25
2018-04-14T00:47:55.763Z,1007.25
2018-04-14T00:48:55.792Z,1007.30
2018-04-14T00:49:55.812Z,1007.29
2018-04-14T00:50:55.823Z,1007.37
2018-04-14T00:51:55.853Z,1007.30
2018-04-14T00:52:55.867Z,1007.28
2018-04-14T00:53:55.891Z,1007.33
2018-04-14T00:54:55.912Z,1007.36
2018-04-14T00:55:55.931Z,1007.35
2018-04-14T00:56:55.946Z,1007.35
2018-04-14T00:57:55.973Z,1007.41
2018-04-14T00:58:55.983Z,1007.39
2018-04-14T00:59:56.012Z,1007.39
2018-04-14T01:00:56.031Z,1007.34
2018-04-14T01:01:56.051Z,1007.40
2018-04-14T01:02:56.064Z,1007.40
2018-04-14T01:03:56.086Z,1007.39
2018-04-14T01:04:56.110Z,1007.37
2018-04-14T01:05:56.126Z,1007.42
2018-04-14T01:06:56.152Z,1007.42
2018-04-14T01:07:56.169Z,1007.46
2018-04-14T01:08:56.189Z,1007.44
2018-04-14T01:09:56.207Z,1007.42
2018-04-14T01:10:56.225Z,1007.41
2018-04-14T01:11:56.246Z,1007.41
2018-04-14T01:12:56.272Z,1007.49
2018-04-14T01:13:56.292Z,1007.46
2018-04-14T01:14:56.306Z,1007.45
2018-04-14T01:15:56.330Z,1007.45
2018-04-14T01:16:56.353Z,1007.41
2018-04-14T01:17:56.364Z,1007.48
2018-04-14T01:18:56.393Z,1007.48
2018-04-14T01:19:56.409Z,1007.47
2018-04-14T01:20:56.428Z,1007.51
2018-04-14T01:21:56.447Z,1007.50
2018-04-14T01:22:56.470Z,1007.48
2018-04-14T01:23:56.492Z,1007.48
2018-04-14T01:24:56.512Z,1007.52
2018-04-14T01:25:56.528Z,1007.54
2018-04-14T01:26:56.547Z,1007.56
2018-04-14T01:27:56.564Z,1007.54
2018-04-14T01:28:56.588Z,1007.57
2018-04-14T01:29:56.612Z,1007.56
2018-04-14T01:30:56.624Z,1007.51
2018-04-14T01:31:56.647Z,1007.58
2018-04-14T01:32:56.670Z,1007.57
2018-04-14T01:33:56.688Z,1007.59
2018-04-14T01:34:56.709Z,1007.58
2018-04-14T01:35:56.728Z,1007.54
2018-04-14T01:36:56.749Z,1007.59
2018-04-14T01:37:56.765Z,1007.60
2018-04-14T01:38:56.792Z,1007.58
2018-04-14T01:39:56.803Z,1007.54
2018-04-14T01:40:56.832Z,1007.58
2018-04-14T01:41:56.851Z,1007.59
2018-04-14T01:42:56.867Z,1007.54
2018-04-14T01:43:56.887Z,1007.54
2018-04-14T01:44:56.912Z,1007.49
2018-04-14T01:45:56.938Z,1007.56
2018-04-14T01:46:56.945Z,1007.55
2018-04-14T01:47:56.965Z,1007.59
2018-04-14T01:48:56.989Z,1007.56
2018-04-14T01:49:57.014Z,1007.59
2018-04-14T01:50:57.023Z,1007.60
2018-04-14T01:51:57.046Z,1007.62
2018-04-14T01:52:57.069Z,1007.63
2018-04-14T01:53:57.090Z,1007.64
2018-04-14T01:54:57.106Z,1007.66
2018-04-14T01:55:57.122Z,1007.69
2018-04-14T01:56:57.151Z,1007.61
2018-04-14T01:57:57.167Z,1007.61
2018-04-14T01:58:57.187Z,1007.64
2018-04-14T01:59:57.210Z,1007.61
2018-04-14T02:00:57.221Z,1007.61
2018-04-14T02:01:57.241Z,1007.65
2018-04-14T02:02:57.270Z,1007.63
2018-04-14T02:03:57.286Z,1007.66
2018-04-14T02:04:57.304Z,1007.66
2018-04-14T02:05:57.322Z,1007.68
2018-04-14T02:06:57.349Z,1007.69
2018-04-14T02:07:57.366Z,1007.68
2018-04-14T02:08:57.383Z,1007.66
2018-04-14T02:09:57.404Z,1007.62
2018-04-14T02:10:57.426Z,1007.61
2018-04-14T02:11:57.449Z,1007.57
2018-04-14T02:12:57.461Z,1007.58
2018-04-14T02:13:57.481Z,1007.55
2018-04-14T02:14:57.509Z,1007.48
2018-04-14T02:15:57.521Z,1007.51
2018-04-14T02:16:57.550Z,1007.49
2018-04-14T02:17:57.565Z,1007.50
2018-04-14T02:18:57.587Z,1007.49
2018-04-14T02:19:57.609Z,1007.50
2018-04-14T02:20:57.627Z,1007.47
2018-04-14T02:21:57.644Z,1007.47
2018-04-14T02:22:57.666Z,1007.45
2018-04-14T02:23:57.683Z,1007.46
2018-04-14T02:24:57.708Z,1007.48
2018-04-14T02:25:57.726Z,1007.49
2018-04-14T02:26:57.750Z,1007.47
2018-04-14T02:27:57.766Z,1007.46
2018-04-14T02:28:57.784Z,1007.48
2018-04-14T02:29:57.805Z,1007.46
2018-04-14T02:30:57.826Z,1007.48
2018-04-14T02:31:57.849Z,1007.48
2018-04-14T02:32:57.861Z,1007.50
2018-04-14T02:33:57.883Z,1007.49
2018-04-14T02:34:57.910Z,1007.50
2018-04-14T02:35:57.922Z,1007.50
2018-04-14T02:36:57.955Z,1007.50
2018-04-14T02:37:57.962Z,1007.54
2018-04-14T02:38:57.989Z,1007.49
2018-04-14T02:39:58.007Z,1007.48
2018-04-14T02:40:58.023Z,1007.47
2018-04-14T02:41:58.053Z,1007.50
2018-04-14T02:42:58.061Z,1007.49
2018-04-14T02:43:58.084Z,1007.47
2018-04-14T02:44:58.110Z,1007.53
2018-04-14T02:45:58.181Z,1007.46
2018-04-14T02:46:58.147Z,1007.46
2018-04-14T02:47:58.162Z,1007.46
2018-04-14T02:48:58.190Z,1007.48
2018-04-14T02:49:58.211Z,1007.46
2018-04-14T02:50:58.221Z,1007.46
2018-04-14T02:51:58.243Z,1007.46
2018-04-14T02:52:58.267Z,1007.45
2018-04-14T02:53:58.285Z,1007.46
2018-04-14T02:54:58.308Z,1007.46
2018-04-14T02:55:58.323Z,1007.44
2018-04-14T02:56:58.354Z,1007.52
2018-04-14T02:57:58.399Z,1007.50
2018-04-14T02:58:58.394Z,1007.53
2018-04-14T02:59:58.406Z,1007.54
2018-04-14T03:00:58.431Z,1007.51
2018-04-14T03:01:58.445Z,1007.54
2018-04-14T03:02:58.468Z,1007.52
2018-04-14T03:03:58.490Z,1007.54
2018-04-14T03:04:58.502Z,1007.57
2018-04-14T03:05:58.523Z,1007.54
2018-04-14T03:06:58.555Z,1007.48
2018-04-14T03:07:58.568Z,1007.49
2018-04-14T03:08:58.611Z,1007.51
2018-04-14T03:09:58.609Z,1007.46
2018-04-14T03:10:58.624Z,1007.49
2018-04-14T03:11:58.641Z,1007.50
2018-04-14T03:12:58.671Z,1007.53
2018-04-14T03:13:58.692Z,1007.54
2018-04-14T03:14:58.702Z,1007.59
2018-04-14T03:15:58.725Z,1007.49
2018-04-14T03:16:58.747Z,1007.48
2018-04-14T03:17:58.763Z,1007.51
2018-04-14T03:18:58.790Z,1007.56
2018-04-14T03:19:58.802Z,1007.57
2018-04-14T03:20:58.831Z,1007.58
2018-04-14T03:21:58.846Z,1007.59
2018-04-14T03:22:58.867Z,1007.61
2018-04-14T03:23:58.895Z,1007.58
2018-04-14T03:24:58.903Z,1007.59
2018-04-14T03:25:58.926Z,1007.59
2018-04-14T03:26:58.948Z,1007.61
2018-04-14T03:27:58.972Z,1007.62
2018-04-14T03:28:58.982Z,1007.70
2018-04-14T03:29:59.009Z,1007.60
2018-04-14T03:30:59.032Z,1007.62
2018-04-14T03:31:59.042Z,1007.64
2018-04-14T03:32:59.070Z,1007.64
2018-04-14T03:33:59.091Z,1007.63
2018-04-14T03:34:59.111Z,1007.62
2018-04-14T03:35:59.131Z,1007.64
2018-04-14T03:36:59.142Z,1007.66
2018-04-14T03:37:59.169Z,1007.62
2018-04-14T03:38:59.191Z,1007.68
2018-04-14T03:39:59.203Z,1007.71
2018-04-14T03:40:59.230Z,1007.66
2018-04-14T03:41:59.248Z,1007.71
2018-04-14T03:42:59.270Z,1007.68
2018-04-14T03:43:59.284Z,1007.67
2018-04-14T03:44:59.311Z,1007.61
2018-04-14T03:45:59.326Z,1007.67
2018-04-14T03:46:59.347Z,1007.68
2018-04-14T03:47:59.372Z,1007.67
2018-04-14T03:48:59.384Z,1007.71
2018-04-14T03:49:59.404Z,1007.72
2018-04-14T03:50:59.426Z,1007.70
2018-04-14T03:51:59.444Z,1007.71
2018-04-14T03:52:59.471Z,1007.67
2018-04-14T03:53:59.492Z,1007.72
2018-04-14T03:54:59.507Z,1007.73
2018-04-14T03:55:59.533Z,1007.75
2018-04-14T03:56:59.562Z,1007.78
2018-04-14T03:57:59.567Z,1007.82
2018-04-14T03:58:59.590Z,1007.84
2018-04-14T03:59:59.614Z,1007.84
2018-04-14T04:00:59.625Z,1007.89
2018-04-14T04:01:59.646Z,1007.90
2018-04-14T04:02:59.674Z,1007.88
2018-04-14T04:03:59.690Z,1007.92
2018-04-14T04:04:59.717Z,1007.95
2018-04-14T04:05:59.728Z,1007.91
2018-04-14T04:06:59.745Z,1007.94
2018-04-14T04:07:59.773Z,1008.03
2018-04-14T04:08:59.785Z,1007.98
2018-04-14T04:09:59.811Z,1008.09
2018-04-14T04:10:59.828Z,1008.08
2018-04-14T04:11:59.847Z,1008.10
2018-04-14T04:12:59.868Z,1008.14
2018-04-14T04:13:59.887Z,1008.10
2018-04-14T04:14:59.915Z,1008.17
2018-04-14T04:15:59.926Z,1008.12
2018-04-14T04:17:12.749Z,1008.18
2018-04-14T04:17:59.963Z,1008.16
2018-04-14T04:18:59.982Z,1008.20
2018-04-14T04:20:00.009Z,1008.16
2018-04-14T04:21:00.019Z,1008.16
2018-04-14T04:22:00.040Z,1008.16
2018-04-14T04:23:00.067Z,1008.20
2018-04-14T04:24:00.085Z,1008.25
2018-04-14T04:25:00.101Z,1008.23
2018-04-14T04:26:00.127Z,1008.23
2018-04-14T04:27:00.145Z,1008.21
2018-04-14T04:28:00.175Z,1008.25
2018-04-14T04:29:00.186Z,1008.22
2018-04-14T04:30:00.210Z,1008.30
2018-04-14T04:31:00.221Z,1008.32
2018-04-14T04:32:00.248Z,1008.31
2018-04-14T04:33:00.259Z,1008.32
2018-04-14T04:34:00.281Z,1008.34
2018-04-14T04:35:00.308Z,1008.33
2018-04-14T04:36:00.321Z,1008.36
2018-04-14T04:37:00.349Z,1008.39
2018-04-14T04:38:00.364Z,1008.42
2018-04-14T04:39:00.386Z,1008.46
2018-04-14T04:40:00.408Z,1008.46
2018-04-14T04:41:00.421Z,1008.49
2018-04-14T04:42:00.447Z,1008.50
2018-04-14T04:43:00.469Z,1008.54
2018-04-14T04:44:00.487Z,1008.55
2018-04-14T04:45:00.509Z,1008.59
2018-04-14T04:46:00.521Z,1008.58
2018-04-14T04:47:00.548Z,1008.65
2018-04-14T04:48:00.560Z,1008.62
2018-04-14T04:49:00.629Z,1008.63
2018-04-14T04:50:00.608Z,1008.58
2018-04-14T04:51:00.620Z,1008.58
2018-04-14T04:52:00.650Z,1008.65
2018-04-14T04:53:00.660Z,1008.66
2018-04-14T04:54:00.686Z,1008.68
2018-04-14T04:55:00.703Z,1008.73
2018-04-14T04:56:00.719Z,1008.74
2018-04-14T04:57:00.748Z,1008.71
2018-04-14T04:58:00.770Z,1008.70
2018-04-14T04:59:00.779Z,1008.75
2018-04-14T05:00:00.803Z,1008.73
2018-04-14T05:01:00.825Z,1008.81
2018-04-14T05:02:00.842Z,1008.79
2018-04-14T05:03:00.864Z,1008.78
2018-04-14T05:04:00.884Z,1008.79
2018-04-14T05:05:00.904Z,1008.84
2018-04-14T05:06:00.925Z,1008.90
2018-04-14T05:07:00.947Z,1008.91
2018-04-14T05:08:00.963Z,1008.93
2018-04-14T05:09:00.982Z,1009.03
2018-04-14T05:10:01.000Z,1008.99
2018-04-14T05:11:02.444Z,1009.00
2018-04-14T05:12:01.040Z,1009.00
2018-04-14T05:13:01.062Z,1009.03
2018-04-14T05:14:01.076Z,1009.00
2018-04-14T05:15:01.104Z,1009.07
2018-04-14T05:16:01.119Z,1009.02
2018-04-14T05:17:01.162Z,1009.04
2018-04-14T05:18:01.164Z,1009.03
2018-04-14T05:19:01.178Z,1009.10
2018-04-14T05:20:01.194Z,1009.13
2018-04-14T05:21:01.227Z,1009.15
2018-04-14T05:22:01.238Z,1009.14
2018-04-14T05:23:01.261Z,1009.16
2018-04-14T05:24:01.283Z,1009.22
2018-04-14T05:25:01.294Z,1009.24
2018-04-14T05:26:01.320Z,1009.28
2018-04-14T05:27:54.012Z,1009.27
2018-04-14T05:28:01.360Z,1009.29
2018-04-14T05:29:01.380Z,1009.28
2018-04-14T05:30:01.393Z,1009.29
2018-04-14T05:31:01.419Z,1009.29
2018-04-14T05:32:01.431Z,1009.32
2018-04-14T05:33:01.454Z,1009.30
2018-04-14T05:35:01.499Z,1009.28
2018-04-14T05:36:01.516Z,1009.30
2018-04-14T05:37:01.547Z,1009.34
2018-04-14T05:38:01.554Z,1009.31
2018-04-14T05:39:01.582Z,1009.32
2018-04-14T05:40:01.592Z,1009.31
2018-04-14T05:41:01.622Z,1009.32
2018-04-14T05:42:01.641Z,1009.35
2018-04-14T05:43:01.656Z,1009.35
2018-04-14T05:44:01.673Z,1009.36
2018-04-14T05:45:01.699Z,1009.36
2018-04-14T05:46:01.717Z,1009.36
2018-04-14T05:47:01.732Z,1009.39
2018-04-14T05:48:01.748Z,1009.38
2018-04-14T05:49:01.772Z,1009.39
2018-04-14T05:50:01.790Z,1009.37
2018-04-14T05:51:01.816Z,1009.39
2018-04-14T05:52:01.834Z,1009.40
2018-04-14T05:53:01.852Z,1009.44
2018-04-14T05:54:01.871Z,1009.45
2018-04-14T05:55:01.891Z,1009.46
2018-04-14T05:56:01.913Z,1009.50
2018-04-14T05:57:01.928Z,1009.48
2018-04-14T05:58:01.952Z,1009.50
2018-04-14T05:59:01.971Z,1009.52
2018-04-14T06:00:01.993Z,1009.51
2018-04-14T06:01:02.003Z,1009.52
2018-04-14T06:02:02.029Z,1009.56
2018-04-14T06:03:02.046Z,1009.51
2018-04-14T06:04:02.061Z,1009.51
2018-04-14T06:05:02.091Z,1009.50
2018-04-14T06:06:02.104Z,1009.53
2018-04-14T06:07:02.129Z,1009.54
2018-04-14T06:08:02.141Z,1009.53
2018-04-14T06:09:02.188Z,1009.49
2018-04-14T06:10:02.190Z,1009.50
2018-04-14T06:11:02.203Z,1009.51
2018-04-14T06:12:02.222Z,1009.53
2018-04-14T06:13:02.244Z,1009.48
2018-04-14T06:14:02.270Z,1009.48
2018-04-14T06:15:02.280Z,1009.54
2018-04-14T06:16:02.300Z,1009.54
2018-04-14T06:17:02.327Z,1009.60
2018-04-14T06:18:02.340Z,1009.54
2018-04-14T06:19:02.363Z,1009.59
2018-04-14T06:20:02.385Z,1009.62
2018-04-14T06:21:02.397Z,1009.61
2018-04-14T06:22:02.429Z,1009.66
2018-04-14T06:23:02.435Z,1009.63
2018-04-14T06:24:02.464Z,1009.72
2018-04-14T06:25:02.481Z,1009.73
2018-04-14T06:26:02.499Z,1009.75
2018-04-14T06:27:02.522Z,1009.73
2018-04-14T06:28:02.539Z,1009.75
2018-04-14T06:29:02.558Z,1009.79
2018-04-14T06:30:02.587Z,1009.83
2018-04-14T06:31:02.599Z,1009.82
2018-04-14T06:32:02.616Z,1009.85
2018-04-14T06:33:02.639Z,1009.85
2018-04-14T06:34:02.656Z,1009.87
2018-04-14T06:35:02.679Z,1009.86
2018-04-14T06:36:02.693Z,1009.89
2018-04-14T06:37:02.719Z,1009.92
2018-04-14T06:38:02.731Z,1009.91
2018-04-14T06:39:02.759Z,1009.92
2018-04-14T06:40:02.769Z,1009.93
2018-04-14T06:41:02.801Z,1009.96
2018-04-14T06:42:02.817Z,1010.14
2018-04-14T06:43:02.842Z,1010.02
2018-04-14T06:44:02.854Z,1009.99
2018-04-14T06:45:02.876Z,1010.18
2018-04-14T06:46:02.892Z,1010.03
2018-04-14T06:47:02.918Z,1009.96
2018-04-14T06:48:02.930Z,1010.32
2018-04-14T06:49:02.958Z,1010.22
2018-04-14T06:50:02.972Z,1011.24
2018-04-14T06:51:02.996Z,1011.08
2018-04-14T06:52:03.093Z,1010.43
2018-04-14T06:53:03.082Z,1010.56
2018-04-14T06:54:03.120Z,1010.53
2018-04-14T06:55:03.108Z,1010.82
2018-04-14T06:56:03.152Z,1010.16
2018-04-14T06:57:03.266Z,1010.87
2018-04-14T06:58:03.132Z,1010.99
2018-04-14T06:59:03.161Z,1010.90
2018-04-14T07:00:03.173Z,1010.56
2018-04-14T07:01:03.204Z,1010.01
2018-04-14T07:02:03.220Z,1010.09
2018-04-14T07:03:03.248Z,1010.06
2018-04-14T07:04:03.266Z,1010.10
2018-04-14T07:05:03.282Z,1010.05
2018-04-14T07:06:03.305Z,1010.08
2018-04-14T07:07:03.324Z,1010.10
2018-04-14T07:08:03.342Z,1010.15
2018-04-14T07:09:03.375Z,1010.19
2018-04-14T07:10:03.393Z,1010.24
2018-04-14T07:11:03.408Z,1010.30
2018-04-14T07:12:03.432Z,1010.23
2018-04-14T07:13:03.456Z,1010.18
2018-04-14T07:14:03.475Z,1010.18
2018-04-14T07:15:03.498Z,1010.24
2018-04-14T07:16:03.521Z,1010.46
2018-04-14T07:17:03.532Z,1010.77
2018-04-14T07:18:03.560Z,1010.63
2018-04-14T07:19:03.577Z,1010.64
2018-04-14T07:20:03.597Z,1010.67
2018-04-14T07:21:03.629Z,1010.75
2018-04-14T07:22:03.643Z,1010.67
2018-04-14T07:23:03.666Z,1010.61
2018-04-14T07:24:03.690Z,1010.49
2018-04-14T07:25:03.703Z,1010.76
2018-04-14T07:26:03.734Z,1010.87
2018-04-14T07:27:03.745Z,1010.82
2018-04-14T07:28:03.772Z,1010.88
2018-04-14T07:29:03.792Z,1010.80
2018-04-14T07:30:03.813Z,1010.67
2018-04-14T07:31:03.843Z,1010.45
2018-04-14T07:32:03.866Z,1010.86
2018-04-14T07:33:03.891Z,1010.86
2018-04-14T07:34:03.905Z,1010.87
2018-04-14T07:35:03.929Z,1010.73
2018-04-14T07:36:03.948Z,1010.51
2018-04-14T07:37:03.975Z,1010.48
2018-04-14T07:38:04.000Z,1010.62
2018-04-14T07:39:04.023Z,1010.71
2018-04-14T07:40:04.041Z,1010.54
2018-04-14T07:41:04.069Z,1010.54
2018-04-14T07:42:04.088Z,1010.43
2018-04-14T07:43:04.109Z,1010.50
2018-04-14T07:44:04.134Z,1010.44
2018-04-14T07:45:04.172Z,1010.45
2018-04-14T07:46:04.186Z,1010.42
2018-04-14T07:47:04.197Z,1010.44
2018-04-14T07:48:04.226Z,1010.43
2018-04-14T07:49:04.242Z,1010.50
2018-04-14T07:50:04.266Z,1010.40
2018-04-14T07:51:04.294Z,1010.43
2018-04-14T07:52:04.310Z,1010.48
2018-04-14T07:53:04.340Z,1010.69
2018-04-14T07:54:04.358Z,1010.55
2018-04-14T07:55:04.383Z,1010.56
2018-04-14T07:56:04.412Z,1010.84
2018-04-14T07:57:04.427Z,1010.56
2018-04-14T07:58:04.456Z,1010.56
2018-04-14T07:59:04.469Z,1010.58
2018-04-14T08:00:04.493Z,1010.56
2018-04-14T08:01:04.518Z,1010.60
2018-04-14T08:02:04.541Z,1010.71
2018-04-14T08:03:04.559Z,1010.72
2018-04-14T08:04:04.579Z,1010.91
2018-04-14T08:05:04.611Z,1010.77
2018-04-14T08:06:04.627Z,1010.85
2018-04-14T08:07:04.651Z,1010.92
2018-04-14T08:08:04.674Z,1010.81
2018-04-14T08:09:04.697Z,1010.88
2018-04-14T08:10:04.716Z,1011.00
2018-04-14T08:11:04.745Z,1010.88
2018-04-14T08:12:04.758Z,1010.92
2018-04-14T08:13:04.791Z,1011.27
2018-04-14T08:14:04.804Z,1011.32
2018-04-14T08:15:04.834Z,1011.27
2018-04-14T08:16:04.855Z,1011.34
2018-04-14T08:17:04.887Z,1011.13
2018-04-14T08:18:04.910Z,1011.53
2018-04-14T08:19:04.929Z,1011.20
2018-04-14T08:20:04.946Z,1010.93
2018-04-14T08:21:04.971Z,1010.83
2018-04-14T08:22:04.992Z,1010.80
2018-04-14T08:23:05.024Z,1010.73
2018-04-14T08:24:05.043Z,1010.82
2018-04-14T08:25:05.065Z,1010.90
2018-04-14T08:26:05.088Z,1011.08
2018-04-14T08:27:05.115Z,1010.94
2018-04-14T08:28:05.143Z,1010.98
2018-04-14T08:29:05.157Z,1011.00
2018-04-14T08:30:05.186Z,1010.84
2018-04-14T08:31:05.207Z,1010.83
2018-04-14T08:32:05.224Z,1011.11
2018-04-14T08:33:05.247Z,1011.52
2018-04-14T08:34:05.279Z,1011.30
2018-04-14T08:35:05.301Z,1011.60
2018-04-14T08:36:05.323Z,1010.96
2018-04-14T08:37:05.341Z,1010.96
2018-04-14T08:38:05.366Z,1010.96
2018-04-14T08:39:05.392Z,1011.28
2018-04-14T08:40:05.413Z,1011.20
2018-04-14T08:41:05.441Z,1010.91
2018-04-14T08:42:05.459Z,1010.83
2018-04-14T08:43:05.490Z,1010.86
2018-04-14T08:44:05.511Z,1010.87
2018-04-14T08:45:05.542Z,1010.88
2018-04-14T08:46:05.553Z,1010.91
2018-04-14T08:47:05.584Z,1010.96
2018-04-14T08:48:05.607Z,1010.95
2018-04-14T08:49:05.631Z,1011.27
2018-04-14T08:50:05.655Z,1011.07
2018-04-14T08:51:05.676Z,1011.00
2018-04-14T08:52:05.703Z,1011.20
2018-04-14T08:53:05.722Z,1011.03
2018-04-14T08:54:05.746Z,1010.93
2018-04-14T08:55:05.802Z,1010.99
2018-04-14T08:56:05.792Z,1010.97
2018-04-14T08:57:05.814Z,1010.99
2018-04-14T08:58:05.843Z,1011.09
2018-04-14T08:59:05.857Z,1011.49
2018-04-14T09:00:05.888Z,1010.99
2018-04-14T09:01:05.935Z,1010.91
2018-04-14T09:02:05.935Z,1010.95
2018-04-14T09:03:05.954Z,1010.93
2018-04-14T09:04:05.976Z,1011.02
2018-04-14T09:05:06.002Z,1011.16
2018-04-14T09:06:06.021Z,1011.02
2018-04-14T09:07:06.046Z,1011.04
2018-04-14T09:08:06.069Z,1011.03
2018-04-14T09:09:06.101Z,1011.01
2018-04-14T09:10:06.116Z,1010.94
2018-04-14T09:11:06.143Z,1010.97
2018-04-14T09:12:06.161Z,1011.02
2018-04-14T09:13:06.188Z,1011.02
2018-04-14T09:14:06.204Z,1011.17
2018-04-14T09:15:06.235Z,1011.05
2018-04-14T09:16:06.286Z,1011.13
2018-04-14T09:17:06.281Z,1011.10
2018-04-14T09:18:06.304Z,1011.13
2018-04-14T09:19:06.323Z,1011.19
2018-04-14T09:20:06.341Z,1011.20
2018-04-14T09:21:06.366Z,1011.41
2018-04-14T09:22:06.388Z,1011.33
2018-04-14T09:23:06.410Z,1011.17
2018-04-14T09:24:06.438Z,1011.13
2018-04-14T09:25:06.454Z,1011.08
2018-04-14T09:26:06.477Z,1011.03
2018-04-14T09:27:06.512Z,1011.11
2018-04-14T09:28:06.527Z,1011.13
2018-04-14T09:29:06.551Z,1011.16
2018-04-14T09:30:06.575Z,1011.28
2018-04-14T09:31:06.599Z,1011.28
2018-04-14T09:32:06.621Z,1011.33
2018-04-14T09:33:06.640Z,1011.76
2018-04-14T09:34:06.708Z,1011.68
2018-04-14T09:35:06.678Z,1011.26
2018-04-14T09:36:06.706Z,1011.28
2018-04-14T09:37:06.749Z,1011.30
2018-04-14T09:38:06.753Z,1011.27
2018-04-14T09:39:06.777Z,1011.30
2018-04-14T09:40:06.801Z,1011.26
2018-04-14T09:41:06.860Z,1011.18
2018-04-14T09:42:06.851Z,1011.16
2018-04-14T09:43:06.869Z,1011.23
2018-04-14T09:44:06.889Z,1011.20
2018-04-14T09:45:06.915Z,1011.28
2018-04-14T09:46:06.932Z,1011.31
2018-04-14T09:47:06.962Z,1011.84
2018-04-14T09:48:06.979Z,1011.26
2018-04-14T09:49:07.012Z,1011.32
2018-04-14T09:50:07.030Z,1011.23
2018-04-14T09:51:07.053Z,1011.46
2018-04-14T09:52:07.070Z,1011.18
2018-04-14T09:53:07.101Z,1011.13
2018-04-14T09:54:07.119Z,1011.22
2018-04-14T09:55:07.140Z,1011.20
2018-04-14T09:56:07.164Z,1011.23
2018-04-14T09:57:07.184Z,1011.22
2018-04-14T09:58:07.217Z,1011.21
2018-04-14T09:59:07.234Z,1011.29
2018-04-14T10:00:07.259Z,1011.22
2018-04-14T10:01:07.279Z,1011.22
2018-04-14T10:02:07.308Z,1011.26
2018-04-14T10:03:07.323Z,1011.28
2018-04-14T10:04:07.353Z,1011.27
2018-04-14T10:05:07.368Z,1011.30
2018-04-14T10:06:07.400Z,1011.29
2018-04-14T10:07:07.413Z,1011.29
2018-04-14T10:08:07.444Z,1011.37
2018-04-14T10:09:07.466Z,1011.37
2018-04-14T10:10:07.480Z,1011.33
2018-04-14T10:11:07.507Z,1011.33
2018-04-14T10:12:07.527Z,1011.29
2018-04-14T10:13:07.557Z,1011.25
2018-04-14T10:14:13.881Z,1011.29
2018-04-14T10:15:07.605Z,1011.23
2018-04-14T10:16:07.628Z,1011.27
2018-04-14T10:17:07.648Z,1011.23
2018-04-14T10:18:07.675Z,1011.16
2018-04-14T10:19:07.687Z,1011.21
2018-04-14T10:20:07.713Z,1011.25
2018-04-14T10:21:07.738Z,1011.30
2018-04-14T10:22:07.764Z,1011.22
2018-04-14T10:23:07.778Z,1011.27
2018-04-14T10:24:07.832Z,1011.29
2018-04-14T10:25:07.827Z,1011.28
2018-04-14T10:26:07.846Z,1011.26
2018-04-14T10:27:07.917Z,1011.26
2018-04-14T10:28:07.895Z,1011.25
2018-04-14T10:29:07.914Z,1011.20
2018-04-14T10:30:07.943Z,1011.25
2018-04-14T10:31:07.957Z,1011.24
2018-04-14T10:32:07.987Z,1011.22
2018-04-14T10:33:08.003Z,1011.23
2018-04-14T10:34:08.025Z,1011.32
2018-04-14T10:35:08.054Z,1011.61
2018-04-14T10:36:08.070Z,1011.37
2018-04-14T10:37:08.100Z,1011.30
2018-04-14T10:38:08.186Z,1011.40
2018-04-14T10:39:08.140Z,1011.32
2018-04-14T10:40:08.158Z,1011.25
2018-04-14T10:41:08.186Z,1011.25
2018-04-14T10:42:08.209Z,1011.28
2018-04-14T10:43:08.227Z,1011.31
2018-04-14T10:44:08.259Z,1011.34
2018-04-14T10:45:08.273Z,1011.30
2018-04-14T10:46:08.303Z,1011.29
2018-04-14T10:47:08.324Z,1011.28
2018-04-14T10:48:08.346Z,1011.26
2018-04-14T10:49:08.367Z,1011.31
2018-04-14T10:50:08.397Z,1011.34
2018-04-14T10:51:08.420Z,1011.38
2018-04-14T10:52:08.436Z,1011.33
2018-04-14T10:53:08.460Z,1011.33
2018-04-14T10:54:08.480Z,1011.31
2018-04-14T10:55:08.506Z,1011.30
2018-04-14T10:56:08.535Z,1011.32
2018-04-14T10:57:08.553Z,1011.41
2018-04-14T10:58:08.575Z,1011.39
2018-04-14T10:59:08.594Z,1011.37
2018-04-14T11:00:08.621Z,1011.36
2018-04-14T11:01:08.640Z,1011.37
2018-04-14T11:02:08.663Z,1011.30
2018-04-14T11:03:08.690Z,1011.42
2018-04-14T11:04:08.714Z,1011.91
2018-04-14T11:05:08.733Z,1011.46
2018-04-14T11:06:08.761Z,1011.36
2018-04-14T11:07:08.777Z,1011.35
2018-04-14T11:08:08.798Z,1011.44
2018-04-14T11:09:08.828Z,1011.40
2018-04-14T11:10:08.849Z,1011.37
2018-04-14T11:11:08.868Z,1011.47
2018-04-14T11:12:08.896Z,1011.52
2018-04-14T11:13:08.919Z,1011.53
2018-04-14T11:14:08.938Z,1011.46
2018-04-14T11:15:08.964Z,1011.44
2018-04-14T11:16:08.986Z,1011.56
2018-04-14T11:17:09.012Z,1011.54
2018-04-14T11:18:09.034Z,1011.59
2018-04-14T11:19:09.057Z,1011.49
2018-04-14T11:20:09.075Z,1011.42
2018-04-14T11:21:09.106Z,1011.36
2018-04-14T11:22:09.125Z,1011.41
2018-04-14T11:23:09.149Z,1011.44
2018-04-14T11:24:09.178Z,1011.39
2018-04-14T11:25:09.194Z,1011.53
2018-04-14T11:26:09.224Z,1012.17
2018-04-14T11:27:09.238Z,1012.09
2018-04-14T11:28:09.264Z,1011.82
2018-04-14T11:29:09.284Z,1011.84
2018-04-14T11:30:09.309Z,1011.68
2018-04-14T11:31:09.335Z,1012.10
2018-04-14T11:32:09.362Z,1012.20
2018-04-14T11:33:09.383Z,1012.08
2018-04-14T11:34:09.415Z,1011.47
2018-04-14T11:35:09.432Z,1011.39
2018-04-14T11:36:09.456Z,1011.34
2018-04-14T11:37:09.483Z,1011.42
2018-04-14T11:38:09.504Z,1011.39
2018-04-14T11:39:09.536Z,1011.39
2018-04-14T11:40:09.560Z,1011.37
2018-04-14T11:41:09.579Z,1011.45
2018-04-14T11:42:09.608Z,1011.63
2018-04-14T11:43:09.627Z,1011.55
2018-04-14T11:44:09.650Z,1011.68
2018-04-14T11:45:09.677Z,1011.51
2018-04-14T11:46:09.701Z,1011.52
2018-04-14T11:47:09.723Z,1011.54
2018-04-14T11:48:09.755Z,1011.70
2018-04-14T11:49:09.772Z,1011.53
2018-04-14T11:50:09.797Z,1012.21
2018-04-14T11:51:09.830Z,1011.66
2018-04-14T11:52:09.845Z,1012.07
2018-04-14T11:53:09.878Z,1012.00
2018-04-14T11:54:09.903Z,1011.86
2018-04-14T11:55:09.919Z,1011.52
2018-04-14T11:56:09.952Z,1012.27
2018-04-14T11:57:09.968Z,1012.27
2018-04-14T11:58:09.996Z,1012.26
2018-04-14T11:59:10.025Z,1012.16
2018-04-14T12:00:10.048Z,1012.22
2018-04-14T12:01:10.076Z,1012.24
2018-04-14T12:02:10.099Z,1012.23
2018-04-14T12:03:10.122Z,1012.38
2018-04-14T12:04:10.151Z,1012.21
2018-04-14T12:05:10.175Z,1012.32
2018-04-14T12:06:10.206Z,1011.59
2018-04-14T12:07:10.225Z,1011.51